Giove Jet — IJNX — position and weather

sailwx.info

Track history (hours):
 
Tides and Currents Weather Stations Pressure Air Temp Water Temp Dewpoint Dewpoint Depression Visibility Wind Speed Wind Dir Waves Ship Positions

Giove Jet

Last reported at 2016-Jul-23 13:33 UTC. Time now 2016-Jul-25 17:48 UTC.
Position N 40°47' E 014°12'.

Length 33 m; draft 1.2 m.

MMSI: 247049500.

Date/timePositionNaut miles runAvg speedWind from/ knotsBaromVisibWave heightAir tempDewpointWater temp
2016-Jul-23 13:33N 40°47' E 014°12'1212.4
2016-Jul-23 12:34N 40°45' E 013°56'0 0.0
2016-Jul-23 11:34N 40°45' E 013°56'1413.8
2016-Jul-23 10:33N 40°50' E 014°13'2 2.0
2016-Jul-23 09:28N 40°50' E 014°16'1617.3
2016-Jul-23 08:33N 40°45' E 013°56'1010.4
2016-Jul-23 07:34N 40°46' E 014°10'4 4.2
2016-Jul-23 06:32N 40°49' E 014°14'6 0.4
2016-Jul-22 17:34N 40°47' E 014°07'0 0.4
2016-Jul-22 16:34N 40°46' E 014°08'7 7.5
2016-Jul-22 15:33N 40°49' E 014°17'1111.0
2016-Jul-22 14:34N 40°47' E 014°03'9 8.7
2016-Jul-22 13:34N 40°45' E 013°51'0 0.5
2016-Jul-22 12:32N 40°44' E 013°51'6 6.6
2016-Jul-22 11:34N 40°46' E 013°60'13 9.9
2016-Jul-22 10:13N 40°50' E 014°17'1624.4
2016-Jul-22 09:34N 40°46' E 013°56'3 2.9
2016-Jul-22 08:34N 40°46' E 013°52'8 2.8
2016-Jul-22 05:34N 40°46' E 014°03'3 0.2
2016-Jul-21 17:33N 40°46' E 014°07'3 2.7
2016-Jul-21 16:33N 40°47' E 014°10'5 5.5
2016-Jul-21 15:34N 40°50' E 014°16'1615.9
2016-Jul-21 14:33N 40°45' E 013°56'1515.5
2016-Jul-21 13:33N 40°50' E 014°15'0 0.0
2016-Jul-21 12:33N 40°50' E 014°15'1212.1
2016-Jul-21 11:34N 40°46' E 014°00'7 6.9
2016-Jul-21 10:33N 40°44' E 013°52'7 6.8
2016-Jul-21 09:34N 40°46' E 014°00'1211.6
2016-Jul-21 08:31N 40°50' E 014°15'4 2.2
2016-Jul-21 06:34N 40°47' E 014°12'6 5.9
2016-Jul-21 05:34N 40°46' E 014°04'8 0.5
2016-Jul-20 15:24N 40°47' E 014°14'1416.0
2016-Jul-20 14:33N 40°45' E 013°56'13 6.7
2016-Jul-20 12:33N 40°48' E 014°13'1313.6
2016-Jul-20 11:33N 40°45' E 013°56'1412.4
2016-Jul-20 10:26N 40°50' E 014°14'2 0.5
2016-Jul-20 06:34N 40°48' E 014°13'7 7.3
2016-Jul-20 05:34N 40°46' E 014°03'9 0.6
2016-Jul-19 15:14N 40°48' E 014°15'1826.4
2016-Jul-19 14:33N 40°44' E 013°52'1 0.5
2016-Jul-19 13:33N 40°45' E 013°51'1 0.5
2016-Jul-19 12:29N 40°44' E 013°52'9 9.8
2016-Jul-19 11:33N 40°46' E 014°03'10 9.3
2016-Jul-19 10:27N 40°49' E 014°16'1517.3
2016-Jul-19 09:33N 40°45' E 013°57'0 0.4
2016-Jul-19 08:33N 40°45' E 013°56'15 0.9
2016-Jul-18 15:27N 40°48' E 014°16'1517.4
2016-Jul-18 14:33N 40°45' E 013°56'13 6.7
2016-Jul-18 12:33N 40°48' E 014°13'1313.4
2016-Jul-18 11:33N 40°45' E 013°56'1412.5
2016-Jul-18 10:26N 40°50' E 014°14'3 2.7
2016-Jul-18 09:28N 40°49' E 014°17'1617.5
2016-Jul-18 08:33N 40°45' E 013°56'12 5.9
2016-Jul-18 06:33N 40°47' E 014°12'6 6.2
2016-Jul-18 05:34N 40°46' E 014°04'9 0.7
2016-Jul-17 17:29N 40°48' E 014°14'2 2.1
2016-Jul-17 16:33N 40°47' E 014°13'1616.3
2016-Jul-17 15:33N 40°44' E 013°52'4 3.6
2016-Jul-17 14:33N 40°45' E 013°56'13 6.4
2016-Jul-17 12:34N 40°48' E 014°13'1312.8
2016-Jul-17 11:33N 40°45' E 013°56'16 7.5
2016-Jul-17 09:22N 40°49' E 014°17'1620.2
2016-Jul-17 08:33N 40°45' E 013°56'9 9.0
2016-Jul-17 07:34N 40°45' E 014°08'8 7.8
2016-Jul-17 06:33N 40°49' E 014°17'0 0.0
2016-Jul-16 18:19N 40°49' E 014°17'1317.6
2016-Jul-16 17:34N 40°44' E 014°01'11 4.6
2016-Jul-16 15:15N 40°48' E 014°14'1724.7
2016-Jul-16 14:33N 40°45' E 013°52'5 4.6
2016-Jul-16 13:34N 40°45' E 013°58'13 9.4
2016-Jul-16 12:07N 40°48' E 014°15'1425.4
2016-Jul-16 11:33N 40°45' E 013°56'1412.9
2016-Jul-16 10:29N 40°50' E 014°14'3 2.5
2016-Jul-16 09:25N 40°49' E 014°17'1619.0
2016-Jul-16 08:33N 40°45' E 013°56'1212.2
2016-Jul-16 07:33N 40°47' E 014°12'8 0.6
2016-Jul-15 17:33N 40°46' E 014°01'10 7.4
2016-Jul-15 16:12N 40°49' E 014°14'2 2.5
2016-Jul-15 15:33N 40°48' E 014°15'1514.9
2016-Jul-15 14:33N 40°45' E 013°56'13 6.4
2016-Jul-15 12:33N 40°48' E 014°13'1312.7
2016-Jul-15 11:34N 40°45' E 013°56'1510.9
2016-Jul-15 10:13N 40°48' E 014°15'1725.1
2016-Jul-15 09:34N 40°46' E 013°54'3 2.8
2016-Jul-15 08:34N 40°45' E 013°57'11 5.4
2016-Jul-15 06:33N 40°47' E 014°12'6 5.7
2016-Jul-15 05:34N 40°46' E 014°04'6 0.3
2016-Jul-14 12:29N 40°47' E 014°12'3 0.7
2016-Jul-14 08:15N 40°50' E 014°14'4 2.5
2016-Jul-14 06:33N 40°47' E 014°10'4 4.2
2016-Jul-14 05:34N 40°46' E 014°04'8 0.6
2016-Jul-13 16:07N 40°50' E 014°14'2 4.0
2016-Jul-13 15:32N 40°49' E 014°17'1616.3
2016-Jul-13 14:33N 40°45' E 013°56'  
Track history (hours):
 
Tides and Currents Weather Stations Pressure Air Temp Water Temp Dewpoint Dewpoint Depression Visibility Wind Speed Wind Dir Waves Ship Positions

Giove Jet

Last reported at 2016-Jul-23 13:33 UTC. Time now 2016-Jul-25 17:48 UTC.
Position N 40°47' E 014°12'.

Length 33 m; draft 1.2 m.

MMSI: 247049500.

Date/timePositionNaut miles runAvg speedWind from/ knotsBaromVisibWave heightAir tempDewpointWater temp
2016-Jul-23 13:33N 40°47' E 014°12'1212.4
2016-Jul-23 12:34N 40°45' E 013°56'0 0.0
2016-Jul-23 11:34N 40°45' E 013°56'1413.8
2016-Jul-23 10:33N 40°50' E 014°13'2 2.0
2016-Jul-23 09:28N 40°50' E 014°16'1617.3
2016-Jul-23 08:33N 40°45' E 013°56'1010.4
2016-Jul-23 07:34N 40°46' E 014°10'4 4.2
2016-Jul-23 06:32N 40°49' E 014°14'6 0.4
2016-Jul-22 17:34N 40°47' E 014°07'0 0.4
2016-Jul-22 16:34N 40°46' E 014°08'7 7.5
2016-Jul-22 15:33N 40°49' E 014°17'1111.0
2016-Jul-22 14:34N 40°47' E 014°03'9 8.7
2016-Jul-22 13:34N 40°45' E 013°51'0 0.5
2016-Jul-22 12:32N 40°44' E 013°51'6 6.6
2016-Jul-22 11:34N 40°46' E 013°60'13 9.9
2016-Jul-22 10:13N 40°50' E 014°17'1624.4
2016-Jul-22 09:34N 40°46' E 013°56'3 2.9
2016-Jul-22 08:34N 40°46' E 013°52'8 2.8
2016-Jul-22 05:34N 40°46' E 014°03'3 0.2
2016-Jul-21 17:33N 40°46' E 014°07'3 2.7
2016-Jul-21 16:33N 40°47' E 014°10'5 5.5
2016-Jul-21 15:34N 40°50' E 014°16'1615.9
2016-Jul-21 14:33N 40°45' E 013°56'1515.5
2016-Jul-21 13:33N 40°50' E 014°15'0 0.0
2016-Jul-21 12:33N 40°50' E 014°15'1212.1
2016-Jul-21 11:34N 40°46' E 014°00'7 6.9
2016-Jul-21 10:33N 40°44' E 013°52'7 6.8
2016-Jul-21 09:34N 40°46' E 014°00'1211.6
2016-Jul-21 08:31N 40°50' E 014°15'4 2.2
2016-Jul-21 06:34N 40°47' E 014°12'6 5.9
2016-Jul-21 05:34N 40°46' E 014°04'8 0.5
2016-Jul-20 15:24N 40°47' E 014°14'1416.0
2016-Jul-20 14:33N 40°45' E 013°56'13 6.7
2016-Jul-20 12:33N 40°48' E 014°13'1313.6
2016-Jul-20 11:33N 40°45' E 013°56'1412.4
2016-Jul-20 10:26N 40°50' E 014°14'2 0.5
2016-Jul-20 06:34N 40°48' E 014°13'7 7.3
2016-Jul-20 05:34N 40°46' E 014°03'9 0.6
2016-Jul-19 15:14N 40°48' E 014°15'1826.4
2016-Jul-19 14:33N 40°44' E 013°52'1 0.5
2016-Jul-19 13:33N 40°45' E 013°51'1 0.5
2016-Jul-19 12:29N 40°44' E 013°52'9 9.8
2016-Jul-19 11:33N 40°46' E 014°03'10 9.3
2016-Jul-19 10:27N 40°49' E 014°16'1517.3
2016-Jul-19 09:33N 40°45' E 013°57'0 0.4
2016-Jul-19 08:33N 40°45' E 013°56'15 0.9
2016-Jul-18 15:27N 40°48' E 014°16'1517.4
2016-Jul-18 14:33N 40°45' E 013°56'13 6.7
2016-Jul-18 12:33N 40°48' E 014°13'1313.4
2016-Jul-18 11:33N 40°45' E 013°56'1412.5
2016-Jul-18 10:26N 40°50' E 014°14'3 2.7
2016-Jul-18 09:28N 40°49' E 014°17'1617.5
2016-Jul-18 08:33N 40°45' E 013°56'12 5.9
2016-Jul-18 06:33N 40°47' E 014°12'6 6.2
2016-Jul-18 05:34N 40°46' E 014°04'9 0.7
2016-Jul-17 17:29N 40°48' E 014°14'2 2.1
2016-Jul-17 16:33N 40°47' E 014°13'1616.3
2016-Jul-17 15:33N 40°44' E 013°52'4 3.6
2016-Jul-17 14:33N 40°45' E 013°56'13 6.4
2016-Jul-17 12:34N 40°48' E 014°13'1312.8
2016-Jul-17 11:33N 40°45' E 013°56'16 7.5
2016-Jul-17 09:22N 40°49' E 014°17'1620.2
2016-Jul-17 08:33N 40°45' E 013°56'9 9.0
2016-Jul-17 07:34N 40°45' E 014°08'8 7.8
2016-Jul-17 06:33N 40°49' E 014°17'0 0.0
2016-Jul-16 18:19N 40°49' E 014°17'1317.6
2016-Jul-16 17:34N 40°44' E 014°01'11 4.6
2016-Jul-16 15:15N 40°48' E 014°14'1724.7
2016-Jul-16 14:33N 40°45' E 013°52'5 4.6
2016-Jul-16 13:34N 40°45' E 013°58'13 9.4
2016-Jul-16 12:07N 40°48' E 014°15'1425.4
2016-Jul-16 11:33N 40°45' E 013°56'1412.9
2016-Jul-16 10:29N 40°50' E 014°14'3 2.5
2016-Jul-16 09:25N 40°49' E 014°17'1619.0
2016-Jul-16 08:33N 40°45' E 013°56'1212.2
2016-Jul-16 07:33N 40°47' E 014°12'8 0.6
2016-Jul-15 17:33N 40°46' E 014°01'10 7.4
2016-Jul-15 16:12N 40°49' E 014°14'2 2.5
2016-Jul-15 15:33N 40°48' E 014°15'1514.9
2016-Jul-15 14:33N 40°45' E 013°56'13 6.4
2016-Jul-15 12:33N 40°48' E 014°13'1312.7
2016-Jul-15 11:34N 40°45' E 013°56'1510.9
2016-Jul-15 10:13N 40°48' E 014°15'1725.1
2016-Jul-15 09:34N 40°46' E 013°54'3 2.8
2016-Jul-15 08:34N 40°45' E 013°57'11 5.4
2016-Jul-15 06:33N 40°47' E 014°12'6 5.7
2016-Jul-15 05:34N 40°46' E 014°04'6 0.3
2016-Jul-14 12:29N 40°47' E 014°12'3 0.7
2016-Jul-14 08:15N 40°50' E 014°14'4 2.5
2016-Jul-14 06:33N 40°47' E 014°10'4 4.2
2016-Jul-14 05:34N 40°46' E 014°04'8 0.6
2016-Jul-13 16:07N 40°50' E 014°14'2 4.0
2016-Jul-13 15:32N 40°49' E 014°17'1616.3
2016-Jul-13 14:33N 40°45' E 013°56'  

Dump ship's entire track history